Hawthorne, California
Current Conditions -  °F | °C
As of 8:03 AM on Tuesday 21 Oct 2014 (Local Time) from KHHR Reporting Station
Haze Haze  
Wind Chill: 19°   Ceiling: Unl
Heat Index: 19°   Visibility: 6mi
Dew Point: 16°   Wind: 3mph
Humidity: 79%   Direction: 100°E
Pressure: 29.92"   Gusts: NA
Location:  33.92°N, 118.35°W
Report Text: KHHR 211503Z 10003KT 6SM HZ SCT014 19/16 A2992 RMK AO2 T01940156
Loading
Personal Weather Stations






























Interactive Weather Map
Tropical Storm Tracking
New forecast layout! Learn more

10-Day Weather Forecast

Advertisements
Track Severe Weather on mobile